Time;durP1;ratioP1;P1;durP2;ratioP2;P2;SDS_P1;SDS_P2;PMS_P1;PMS_P2;Temp;Humidity;BMP_temperature;BMP_pressure;BME280_temperature;BME280_humidity;BME280_pressure;Samples;Min_cycle;Max_cycle;Signal;HPM_P1;HPM_P2
2022/07/31 00:01:40;;;;;;;;;;;;;;;;;;5015480;28;20272;-25
2022/07/31 00:04:06;;;;;;;;;;;;;;;;;;5014601;28;19917;-27
2022/07/31 00:06:32;;;;;;;;;;;;;;;;;;5014908;28;19933;-24
2022/07/31 00:08:58;;;;;;;;;;;;;;;;;;5014919;28;19917;-25
2022/07/31 00:11:24;;;;;;;;;;;;;;;;;;5018513;28;19918;-28
2022/07/31 00:13:50;;;;;;;;;;;;;;;;;;5018373;28;19929;-27
2022/07/31 00:16:16;;;;;;;;;;;;;;;;;;5018461;28;19956;-24
2022/07/31 00:18:42;;;;;;;;;;;;;;;;;;5018398;28;19913;-25
2022/07/31 00:21:08;;;;;;;;;;;;;;;;;;5018650;28;20254;-25
2022/07/31 00:23:34;;;;;;;;;;;;;;;;;;5018208;28;19918;-24
2022/07/31 00:26:00;;;;;;;;;;;;;;;;;;5018260;28;19909;-24
2022/07/31 00:28:26;;;;;;;;;;;;;;;;;;5018210;28;19914;-25
2022/07/31 00:30:52;;;;;;;;;;;;;;;;;;5018212;28;20012;-25
2022/07/31 00:33:18;;;;;;;;;;;;;;;;;;5018126;28;19913;-25
2022/07/31 00:35:44;;;;;;;;;;;;;;;;;;5018064;28;19957;-26
2022/07/31 00:38:10;;;;;;;;;;;;;;;;;;5018336;28;19959;-28
2022/07/31 00:40:36;;;;;;;;;;;;;;;;;;5018022;28;19920;-25
2022/07/31 00:43:02;;;;;;;;;;;;;;;;;;5017925;28;19956;-27
2022/07/31 00:45:28;;;;;;;;;;;;;;;;;;5016959;28;19913;-24
2022/07/31 00:47:54;;;;;;;;;;;;;;;;;;5016964;28;19913;-25
2022/07/31 00:50:20;;;;;;;;;;;;;;;;;;5017805;28;20376;-28
2022/07/31 00:52:46;;;;;;;;;;;;;;;;;;5017992;28;19920;-24
2022/07/31 00:55:12;;;;;;;;;;;;;;;;;;5017909;28;19917;-24
2022/07/31 00:57:38;;;;;;;;;;;;;;;;;;5017663;28;20399;-28
2022/07/31 01:00:04;;;;;;;;;;;;;;;;;;5017877;28;19913;-33
2022/07/31 01:02:30;;;;;;;;;;;;;;;;;;5017697;28;19976;-25
2022/07/31 01:04:56;;;;;;;;;;;;;;;;;;5017393;28;19917;-27
2022/07/31 01:07:22;;;;;;;;;;;;;;;;;;5017726;28;19913;-25
2022/07/31 01:09:48;;;;;;;;;;;;;;;;;;5017744;28;20367;-31
2022/07/31 01:12:14;;;;;;;;;;;;;;;;;;5017421;28;19925;-25
2022/07/31 01:14:40;;;;;;;;;;;;;;;;;;5017308;28;19921;-33
2022/07/31 01:17:06;;;;;;;;;;;;;;;;;;5017334;28;20387;-25
2022/07/31 01:19:32;;;;;;;;;;;;;;;;;;5017273;28;20046;-30
2022/07/31 01:21:58;;;;;;;;;;;;;;;;;;5015487;28;19925;-27
2022/07/31 01:24:24;;;;;;;;;;;;;;;;;;5017133;28;19972;-28
2022/07/31 01:26:50;;;;;;;;;;;;;;;;;;5017189;28;19913;-26
2022/07/31 01:29:16;;;;;;;;;;;;;;;;;;5017337;28;19955;-27
2022/07/31 01:31:42;;;;;;;;;;;;;;;;;;5017030;28;19937;-24
2022/07/31 01:34:08;;;;;;;;;;;;;;;;;;5016830;28;19914;-28
2022/07/31 01:36:34;;;;;;;;;;;;;;;;;;5016908;28;19980;-24
2022/07/31 01:39:00;;;;;;;;;;;;;;;;;;5016940;28;20067;-27
2022/07/31 01:41:26;;;;;;;;;;;;;;;;;;5017145;28;20000;-26
2022/07/31 01:43:52;;;;;;;;;;;;;;;;;;5017622;28;19948;-25
2022/07/31 01:46:18;;;;;;;;;;;;;;;;;;5016759;28;20014;-25
2022/07/31 01:48:44;;;;;;;;;;;;;;;;;;5017031;28;20329;-27
2022/07/31 01:51:10;;;;;;;;;;;;;;;;;;5016706;28;20356;-24
2022/07/31 01:53:37;;;;;;;;;;;;;;;;;;5016773;28;19924;-30
2022/07/31 01:56:04;;;;;;;;;;;;;;;;;;5016847;28;19914;-27
2022/07/31 01:58:30;;;;;;;;;;;;;;;;;;5016504;28;19924;-31
2022/07/31 02:00:57;;;;;;;;;;;;;;;;;;5016495;28;19920;-25
2022/07/31 02:03:23;;;;;;;;;;;;;;;;;;5016185;28;19952;-25
2022/07/31 02:05:49;;;;;;;;;;;;;;;;;;5016439;28;20376;-26
2022/07/31 02:08:15;;;;;;;;;;;;;;;;;;5016333;28;19983;-26
2022/07/31 02:10:41;;;;;;;;;;;;;;;;;;5016380;28;19953;-25
2022/07/31 02:13:06;;;;;;;;;;;;;;;;;;5016215;28;19920;-28
2022/07/31 02:15:32;;;;;;;;;;;;;;;;;;5016198;28;19917;-36
2022/07/31 02:17:58;;;;;;;;;;;;;;;;;;5016473;28;20298;-25
2022/07/31 02:20:24;;;;;;;;;;;;;;;;;;5016470;28;19914;-27
2022/07/31 02:22:50;;;;;;;;;;;;;;;;;;5015104;28;20234;-25
2022/07/31 02:25:16;;;;;;;;;;;;;;;;;;5015462;28;20012;-25
2022/07/31 02:27:42;;;;;;;;;;;;;;;;;;5016030;28;19913;-25
2022/07/31 02:30:08;;;;;;;;;;;;;;;;;;5016263;28;20004;-26
2022/07/31 02:32:34;;;;;;;;;;;;;;;;;;5015839;28;19917;-25
2022/07/31 02:35:00;;;;;;;;;;;;;;;;;;5015862;28;19920;-24
2022/07/31 02:37:26;;;;;;;;;;;;;;;;;;5015830;28;19914;-27
2022/07/31 02:39:52;;;;;;;;;;;;;;;;;;5015858;28;20264;-24
2022/07/31 02:42:18;;;;;;;;;;;;;;;;;;5015689;28;20069;-27
2022/07/31 02:44:44;;;;;;;;;;;;;;;;;;5016039;28;19914;-24
2022/07/31 02:47:10;;;;;;;;;;;;;;;;;;5015731;28;19971;-25
2022/07/31 02:49:36;;;;;;;;;;;;;;;;;;5015693;28;19917;-28
2022/07/31 02:52:03;;;;;;;;;;;;;;;;;;5015886;28;20341;-25
2022/07/31 02:54:29;;;;;;;;;;;;;;;;;;5015528;28;20238;-24
2022/07/31 02:56:55;;;;;;;;;;;;;;;;;;5015831;28;19909;-25
2022/07/31 02:59:21;;;;;;;;;;;;;;;;;;5015571;28;19913;-24
2022/07/31 03:01:47;;;;;;;;;;;;;;;;;;5015448;28;19925;-24
2022/07/31 03:04:13;;;;;;;;;;;;;;;;;;5015277;28;20340;-25
2022/07/31 03:06:39;;;;;;;;;;;;;;;;;;5015749;28;20436;-27
2022/07/31 03:09:05;;;;;;;;;;;;;;;;;;5015712;28;19920;-26
2022/07/31 03:11:31;;;;;;;;;;;;;;;;;;5015715;28;20032;-25
2022/07/31 03:13:57;;;;;;;;;;;;;;;;;;5015221;28;20350;-25
2022/07/31 03:16:23;;;;;;;;;;;;;;;;;;5015346;28;19947;-24
2022/07/31 03:18:49;;;;;;;;;;;;;;;;;;5015632;28;19914;-25
2022/07/31 03:21:16;;;;;;;;;;;;;;;;;;5015311;28;19909;-25
2022/07/31 03:23:42;;;;;;;;;;;;;;;;;;5015240;28;19920;-24
2022/07/31 03:26:08;;;;;;;;;;;;;;;;;;5014340;28;20307;-27
2022/07/31 03:28:34;;;;;;;;;;;;;;;;;;5014311;28;20000;-26
2022/07/31 03:31:00;;;;;;;;;;;;;;;;;;5015256;28;20314;-30
2022/07/31 03:33:26;;;;;;;;;;;;;;;;;;5015150;28;20016;-27
2022/07/31 03:35:52;;;;;;;;;;;;;;;;;;5015488;28;20008;-26
2022/07/31 03:38:19;;;;;;;;;;;;;;;;;;5015462;28;19983;-27
2022/07/31 03:40:44;;;;;;;;;;;;;;;;;;5015135;28;19914;-24
2022/07/31 03:43:10;;;;;;;;;;;;;;;;;;5015031;28;19914;-29
2022/07/31 03:45:36;;;;;;;;;;;;;;;;;;5017470;28;20315;-26
2022/07/31 03:48:02;;;;;;;;;;;;;;;;;;5018835;28;19924;-25
2022/07/31 03:50:28;;;;;;;;;;;;;;;;;;5019248;28;20257;-25
2022/07/31 03:52:54;;;;;;;;;;;;;;;;;;5019083;28;19913;-25
2022/07/31 03:55:20;;;;;;;;;;;;;;;;;;5019043;28;19913;-25
2022/07/31 03:57:46;;;;;;;;;;;;;;;;;;5018834;28;19924;-27
2022/07/31 04:00:12;;;;;;;;;;;;;;;;;;5018989;28;19914;-28
2022/07/31 04:02:38;;;;;;;;;;;;;;;;;;5018691;28;19910;-26
2022/07/31 04:05:04;;;;;;;;;;;;;;;;;;5018495;28;19922;-26
2022/07/31 04:07:30;;;;;;;;;;;;;;;;;;5017698;28;19917;-24
2022/07/31 04:09:56;;;;;;;;;;;;;;;;;;5018625;28;20256;-25
2022/07/31 04:12:22;;;;;;;;;;;;;;;;;;5018679;28;20360;-25
2022/07/31 04:14:48;;;;;;;;;;;;;;;;;;5018677;28;19921;-24
2022/07/31 04:17:14;;;;;;;;;;;;;;;;;;5018450;28;20257;-25
2022/07/31 04:19:40;;;;;;;;;;;;;;;;;;5018658;28;19914;-25
2022/07/31 04:22:06;;;;;;;;;;;;;;;;;;5017352;28;20008;-24
2022/07/31 04:24:32;;;;;;;;;;;;;;;;;;5018616;28;19944;-24
2022/07/31 04:26:58;;;;;;;;;;;;;;;;;;5018198;28;19914;-24
2022/07/31 04:29:27;;;;;;;;;;;;;;;;;;5019298;28;19914;-25
2022/07/31 04:31:53;;;;;;;;;;;;;;;;;;5017177;28;20338;-25
2022/07/31 04:34:19;;;;;;;;;;;;;;;;;;5018354;28;20311;-25
2022/07/31 04:36:45;;;;;;;;;;;;;;;;;;5018091;28;19914;-26
2022/07/31 04:39:11;;;;;;;;;;;;;;;;;;5018060;28;19917;-27
2022/07/31 04:41:38;;;;;;;;;;;;;;;;;;5018007;28;19987;-24
2022/07/31 04:44:04;;;;;;;;;;;;;;;;;;5018145;28;20315;-25
2022/07/31 04:46:30;;;;;;;;;;;;;;;;;;5018152;28;19917;-25
2022/07/31 04:48:56;;;;;;;;;;;;;;;;;;5018173;28;20004;-24
2022/07/31 04:51:22;;;;;;;;;;;;;;;;;;5017830;28;19914;-25
2022/07/31 04:53:51;;;;;;;;;;;;;;;;;;5017712;28;20272;-25
2022/07/31 04:56:32;;;;;;;;;;;;;;;;;;5016598;28;19913;-25
2022/07/31 04:58:58;;;;;;;;;;;;;;;;;;5017733;28;19910;-25
2022/07/31 05:01:24;;;;;;;;;;;;;;;;;;5016709;28;19917;-26
2022/07/31 05:03:50;;;;;;;;;;;;;;;;;;5017339;28;19918;-27
2022/07/31 05:06:16;;;;;;;;;;;;;;;;;;5017563;28;19914;-25
2022/07/31 05:08:42;;;;;;;;;;;;;;;;;;5017823;28;20340;-25
2022/07/31 05:11:24;;;;;;;;;;;;;;;;;;5017494;28;19920;-25
2022/07/31 05:13:50;;;;;;;;;;;;;;;;;;5017301;28;20253;-26
2022/07/31 05:16:16;;;;;;;;;;;;;;;;;;5017422;28;19992;-24
2022/07/31 05:18:44;;;;;;;;;;;;;;;;;;5016359;28;20004;-25
2022/07/31 05:21:10;;;;;;;;;;;;;;;;;;5017261;28;19952;-31
2022/07/31 05:23:36;;;;;;;;;;;;;;;;;;5017172;28;19909;-24
2022/07/31 05:26:02;;;;;;;;;;;;;;;;;;5017161;28;19968;-27
2022/07/31 05:28:28;;;;;;;;;;;;;;;;;;5017139;28;19918;-25
2022/07/31 05:30:54;;;;;;;;;;;;;;;;;;5017064;28;19917;-25
2022/07/31 05:33:20;;;;;;;;;;;;;;;;;;5016975;28;20269;-25
2022/07/31 05:35:45;;;;;;;;;;;;;;;;;;5017295;28;19913;-28
2022/07/31 05:38:11;;;;;;;;;;;;;;;;;;5016986;28;19914;-28
2022/07/31 05:40:37;;;;;;;;;;;;;;;;;;5017209;28;19956;-27
2022/07/31 05:43:03;;;;;;;;;;;;;;;;;;5017051;28;19917;-24
2022/07/31 05:45:29;;;;;;;;;;;;;;;;;;5016824;28;19921;-26
2022/07/31 05:47:55;;;;;;;;;;;;;;;;;;5017030;28;19964;-26
2022/07/31 05:50:22;;;;;;;;;;;;;;;;;;5017015;28;19924;-26
2022/07/31 05:52:50;;;;;;;;;;;;;;;;;;5016539;28;19914;-28
2022/07/31 05:55:16;;;;;;;;;;;;;;;;;;5017103;28;19971;-25
2022/07/31 05:57:42;;;;;;;;;;;;;;;;;;5016555;28;20356;-25
2022/07/31 06:00:09;;;;;;;;;;;;;;;;;;5016839;28;19909;-27
2022/07/31 06:02:35;;;;;;;;;;;;;;;;;;5016415;28;20265;-28
2022/07/31 06:05:01;;;;;;;;;;;;;;;;;;5016309;28;19917;-26
2022/07/31 06:07:27;;;;;;;;;;;;;;;;;;5016072;28;19976;-24
2022/07/31 06:09:53;;;;;;;;;;;;;;;;;;5016379;28;19909;-28
2022/07/31 06:12:19;;;;;;;;;;;;;;;;;;5015299;28;19925;-25
2022/07/31 06:14:45;;;;;;;;;;;;;;;;;;5016509;28;19918;-24
2022/07/31 06:17:11;;;;;;;;;;;;;;;;;;5016217;28;20364;-27
2022/07/31 06:19:37;;;;;;;;;;;;;;;;;;5016185;28;19913;-25
2022/07/31 06:22:03;;;;;;;;;;;;;;;;;;5016057;28;19921;-26
2022/07/31 06:24:29;;;;;;;;;;;;;;;;;;5015160;28;19914;-24
2022/07/31 06:26:54;;;;;;;;;;;;;;;;;;5016369;28;19921;-30
2022/07/31 06:29:21;;;;;;;;;;;;;;;;;;5016508;28;19910;-28
2022/07/31 06:31:47;;;;;;;;;;;;;;;;;;5015892;28;19917;-24
2022/07/31 06:34:13;;;;;;;;;;;;;;;;;;5015856;28;19921;-24
2022/07/31 06:36:39;;;;;;;;;;;;;;;;;;5015907;28;19952;-25
2022/07/31 06:39:05;;;;;;;;;;;;;;;;;;5015860;28;19941;-25
2022/07/31 06:41:43;;;;;;;;;;;;;;;;;;5015827;28;19944;-25
2022/07/31 06:44:09;;;;;;;;;;;;;;;;;;5016037;28;19964;-24
2022/07/31 06:46:35;;;;;;;;;;;;;;;;;;5015771;28;19914;-24
2022/07/31 06:49:01;;;;;;;;;;;;;;;;;;5014802;28;19913;-28
2022/07/31 06:51:27;;;;;;;;;;;;;;;;;;5015659;28;19914;-26
2022/07/31 06:53:53;;;;;;;;;;;;;;;;;;5015532;28;20344;-28
2022/07/31 06:56:19;;;;;;;;;;;;;;;;;;5015901;28;20337;-25
2022/07/31 06:58:44;;;;;;;;;;;;;;;;;;5015940;28;19909;-26
2022/07/31 07:01:10;;;;;;;;;;;;;;;;;;5015551;28;19914;-25
2022/07/31 07:03:36;;;;;;;;;;;;;;;;;;5015269;28;19918;-24
2022/07/31 07:06:02;;;;;;;;;;;;;;;;;;5015794;28;19923;-26
2022/07/31 07:08:28;;;;;;;;;;;;;;;;;;5015463;28;19910;-26
2022/07/31 07:10:54;;;;;;;;;;;;;;;;;;5015691;28;19914;-25
2022/07/31 07:13:20;;;;;;;;;;;;;;;;;;5015324;28;19968;-26
2022/07/31 07:15:46;;;;;;;;;;;;;;;;;;5015579;28;20016;-25
2022/07/31 07:18:13;;;;;;;;;;;;;;;;;;5015679;28;19932;-25
2022/07/31 07:20:39;;;;;;;;;;;;;;;;;;5014655;28;20222;-26
2022/07/31 07:23:05;;;;;;;;;;;;;;;;;;5014313;28;19978;-24
2022/07/31 07:25:31;;;;;;;;;;;;;;;;;;5015344;28;20328;-25
2022/07/31 07:27:57;;;;;;;;;;;;;;;;;;5015554;28;19955;-25
2022/07/31 07:30:27;;;;;;;;;;;;;;;;;;5015215;28;20051;-26
2022/07/31 07:32:53;;;;;;;;;;;;;;;;;;5015138;28;19910;-26
2022/07/31 07:35:19;;;;;;;;;;;;;;;;;;5015144;28;19941;-26
2022/07/31 07:37:45;;;;;;;;;;;;;;;;;;5015414;28;19968;-30
2022/07/31 07:40:11;;;;;;;;;;;;;;;;;;5015136;28;20416;-29
2022/07/31 07:42:37;;;;;;;;;;;;;;;;;;5015109;28;19953;-25
2022/07/31 07:45:03;;;;;;;;;;;;;;;;;;5015108;28;19914;-25
2022/07/31 07:47:29;;;;;;;;;;;;;;;;;;5015058;28;19965;-26
2022/07/31 07:49:55;;;;;;;;;;;;;;;;;;5015060;28;19921;-25
2022/07/31 07:52:21;;;;;;;;;;;;;;;;;;5014072;28;19937;-24
2022/07/31 07:54:47;;;;;;;;;;;;;;;;;;5014981;28;19963;-26
2022/07/31 07:57:13;;;;;;;;;;;;;;;;;;5015267;28;19914;-25
2022/07/31 07:59:39;;;;;;;;;;;;;;;;;;5014987;28;20284;-27
2022/07/31 08:02:05;;;;;;;;;;;;;;;;;;5014929;28;19910;-28
2022/07/31 08:04:31;;;;;;;;;;;;;;;;;;5014762;28;20241;-24
2022/07/31 08:06:57;;;;;;;;;;;;;;;;;;5015182;28;19914;-29
2022/07/31 08:09:23;;;;;;;;;;;;;;;;;;5014878;28;20392;-26
2022/07/31 08:11:49;;;;;;;;;;;;;;;;;;5015095;28;19914;-25
2022/07/31 08:14:15;;;;;;;;;;;;;;;;;;5014807;28;19928;-31
2022/07/31 08:16:41;;;;;;;;;;;;;;;;;;5014814;28;19921;-24
2022/07/31 08:19:07;;;;;;;;;;;;;;;;;;5014819;28;20008;-24
2022/07/31 08:21:34;;;;;;;;;;;;;;;;;;5014817;28;19913;-24
2022/07/31 08:24:00;;;;;;;;;;;;;;;;;;5014634;28;19924;-27
2022/07/31 08:26:26;;;;;;;;;;;;;;;;;;5014735;28;19909;-25
2022/07/31 08:28:52;;;;;;;;;;;;;;;;;;5014678;28;19996;-28
2022/07/31 08:31:18;;;;;;;;;;;;;;;;;;5016392;28;20295;-29
2022/07/31 08:33:44;;;;;;;;;;;;;;;;;;5018064;28;19917;-27
2022/07/31 08:36:10;;;;;;;;;;;;;;;;;;5018407;28;19913;-24
2022/07/31 08:38:37;;;;;;;;;;;;;;;;;;5018433;28;19920;-26
2022/07/31 08:41:03;;;;;;;;;;;;;;;;;;5018086;28;20010;-27
2022/07/31 08:43:29;;;;;;;;;;;;;;;;;;5017050;28;19909;-24
2022/07/31 08:45:55;;;;;;;;;;;;;;;;;;5017948;28;19913;-25
2022/07/31 08:48:21;;;;;;;;;;;;;;;;;;5017976;28;19917;-25
2022/07/31 08:50:47;;;;;;;;;;;;;;;;;;5017866;28;19913;-25
2022/07/31 08:53:14;;;;;;;;;;;;;;;;;;5018091;28;19916;-29
2022/07/31 08:55:40;;;;;;;;;;;;;;;;;;5018021;28;20008;-25
2022/07/31 08:58:06;;;;;;;;;;;;;;;;;;5016780;28;19964;-26
2022/07/31 09:00:32;;;;;;;;;;;;;;;;;;5017728;28;20013;-25
2022/07/31 09:02:58;;;;;;;;;;;;;;;;;;5017418;28;20308;-26
2022/07/31 09:05:24;;;;;;;;;;;;;;;;;;5017884;28;19945;-25
2022/07/31 09:07:50;;;;;;;;;;;;;;;;;;5017538;28;19913;-25
2022/07/31 09:10:16;;;;;;;;;;;;;;;;;;5017501;28;19992;-24
2022/07/31 09:12:41;;;;;;;;;;;;;;;;;;5017380;28;19924;-25
2022/07/31 09:15:08;;;;;;;;;;;;;;;;;;5017641;28;19976;-26
2022/07/31 09:17:34;;;;;;;;;;;;;;;;;;5017331;28;20327;-24
2022/07/31 09:20:00;;;;;;;;;;;;;;;;;;5017608;28;20016;-25
2022/07/31 09:22:26;;;;;;;;;;;;;;;;;;5017211;28;19921;-28
2022/07/31 09:24:52;;;;;;;;;;;;;;;;;;5016267;28;19909;-26
2022/07/31 09:27:18;;;;;;;;;;;;;;;;;;5017521;28;20311;-27
2022/07/31 09:29:44;;;;;;;;;;;;;;;;;;5016147;28;19975;-27
2022/07/31 09:32:10;;;;;;;;;;;;;;;;;;5017281;28;19917;-25
2022/07/31 09:34:36;;;;;;;;;;;;;;;;;;5016974;28;19928;-25
2022/07/31 09:37:02;;;;;;;;;;;;;;;;;;5016023;28;19909;-25
2022/07/31 09:39:28;;;;;;;;;;;;;;;;;;5016944;28;20353;-26
2022/07/31 09:41:54;;;;;;;;;;;;;;;;;;5016794;28;19917;-24
2022/07/31 09:44:20;;;;;;;;;;;;;;;;;;5016580;28;19920;-26
2022/07/31 09:46:47;;;;;;;;;;;;;;;;;;5016785;28;19921;-30
2022/07/31 09:49:13;;;;;;;;;;;;;;;;;;5017023;28;19956;-25
2022/07/31 09:51:39;;;;;;;;;;;;;;;;;;5016715;28;19957;-25
2022/07/31 09:54:05;;;;;;;;;;;;;;;;;;5016546;28;19956;-24
2022/07/31 09:56:31;;;;;;;;;;;;;;;;;;5016916;28;19956;-24
2022/07/31 09:58:57;;;;;;;;;;;;;;;;;;5016620;28;20345;-24
2022/07/31 10:01:25;;;;;;;;;;;;;;;;;;5015746;28;20519;-24
2022/07/31 10:03:51;;;;;;;;;;;;;;;;;;5016223;28;19925;-28
2022/07/31 10:06:17;;;;;;;;;;;;;;;;;;5016452;28;19916;-24
2022/07/31 10:08:43;;;;;;;;;;;;;;;;;;5016386;28;19996;-26
2022/07/31 10:11:09;;;;;;;;;;;;;;;;;;5016333;28;19909;-28
2022/07/31 10:13:36;;;;;;;;;;;;;;;;;;5016170;28;20004;-27
2022/07/31 10:16:03;;;;;;;;;;;;;;;;;;5016298;28;19941;-27
2022/07/31 10:18:29;;;;;;;;;;;;;;;;;;5016493;28;19913;-28
2022/07/31 10:20:55;;;;;;;;;;;;;;;;;;5016795;28;20399;-26
2022/07/31 10:23:21;;;;;;;;;;;;;;;;;;5016100;28;19914;-27
2022/07/31 10:25:47;;;;;;;;;;;;;;;;;;5016099;28;20365;-26
2022/07/31 10:28:13;;;;;;;;;;;;;;;;;;5016343;28;19917;-24
2022/07/31 10:30:39;;;;;;;;;;;;;;;;;;5015082;28;20256;-25
2022/07/31 10:33:05;;;;;;;;;;;;;;;;;;5015013;28;19972;-26
2022/07/31 10:35:31;;;;;;;;;;;;;;;;;;5015886;28;19918;-24
2022/07/31 10:37:57;;;;;;;;;;;;;;;;;;5015928;28;19914;-26
2022/07/31 10:40:23;;;;;;;;;;;;;;;;;;5015929;28;19917;-24
2022/07/31 10:42:50;;;;;;;;;;;;;;;;;;5016081;28;20264;-25
2022/07/31 10:45:16;;;;;;;;;;;;;;;;;;5014904;28;20406;-25
2022/07/31 10:47:42;;;;;;;;;;;;;;;;;;5016025;28;20255;-24
2022/07/31 10:50:08;;;;;;;;;;;;;;;;;;5015992;28;19909;-24
2022/07/31 10:52:34;;;;;;;;;;;;;;;;;;5015653;28;19921;-25
2022/07/31 10:55:00;;;;;;;;;;;;;;;;;;5014958;28;20387;-28
2022/07/31 10:57:26;;;;;;;;;;;;;;;;;;5015592;28;19920;-26
2022/07/31 10:59:53;;;;;;;;;;;;;;;;;;5015629;28;19913;-28
2022/07/31 11:02:18;;;;;;;;;;;;;;;;;;5015747;28;19913;-26
2022/07/31 11:04:45;;;;;;;;;;;;;;;;;;5015330;28;19918;-24
2022/07/31 11:07:11;;;;;;;;;;;;;;;;;;5015748;28;19913;-24
2022/07/31 11:09:37;;;;;;;;;;;;;;;;;;5015447;28;19909;-25
2022/07/31 11:12:03;;;;;;;;;;;;;;;;;;5015368;28;19920;-26
2022/07/31 11:14:29;;;;;;;;;;;;;;;;;;5015329;28;20324;-25
2022/07/31 11:16:55;;;;;;;;;;;;;;;;;;5015397;28;20315;-24
2022/07/31 11:19:21;;;;;;;;;;;;;;;;;;5015348;28;19921;-27
2022/07/31 11:21:46;;;;;;;;;;;;;;;;;;5015267;28;19909;-24
2022/07/31 11:24:12;;;;;;;;;;;;;;;;;;5014374;28;19914;-26
2022/07/31 11:26:38;;;;;;;;;;;;;;;;;;5015593;28;19921;-26
2022/07/31 11:29:05;;;;;;;;;;;;;;;;;;5015293;28;19929;-24
2022/07/31 11:31:31;;;;;;;;;;;;;;;;;;5015229;28;19918;-27
2022/07/31 11:33:57;;;;;;;;;;;;;;;;;;5015042;28;19913;-24
2022/07/31 11:36:23;;;;;;;;;;;;;;;;;;5015223;28;20016;-25
2022/07/31 11:38:49;;;;;;;;;;;;;;;;;;5015123;28;19913;-24
2022/07/31 11:41:15;;;;;;;;;;;;;;;;;;5015439;28;19910;-24
2022/07/31 11:43:41;;;;;;;;;;;;;;;;;;5015092;28;19920;-25
2022/07/31 11:46:07;;;;;;;;;;;;;;;;;;5015157;28;19913;-27
2022/07/31 11:48:33;;;;;;;;;;;;;;;;;;5015063;28;19913;-26
2022/07/31 11:51:00;;;;;;;;;;;;;;;;;;5015057;28;19921;-24
2022/07/31 11:53:26;;;;;;;;;;;;;;;;;;5014885;28;19980;-26
2022/07/31 11:55:52;;;;;;;;;;;;;;;;;;5014961;28;19914;-28
2022/07/31 11:58:18;;;;;;;;;;;;;;;;;;5014974;28;19917;-25
2022/07/31 12:00:44;;;;;;;;;;;;;;;;;;5014972;28;19971;-24
2022/07/31 12:03:10;;;;;;;;;;;;;;;;;;5014694;28;19914;-27
2022/07/31 12:05:36;;;;;;;;;;;;;;;;;;5015876;28;20004;-25
2022/07/31 12:08:02;;;;;;;;;;;;;;;;;;5017774;28;20341;-26
2022/07/31 12:10:28;;;;;;;;;;;;;;;;;;5018638;28;19917;-25
2022/07/31 12:12:54;;;;;;;;;;;;;;;;;;5018730;28;20238;-26
2022/07/31 12:15:21;;;;;;;;;;;;;;;;;;5018714;28;19921;-25
2022/07/31 12:17:47;;;;;;;;;;;;;;;;;;5018471;28;19909;-26
2022/07/31 12:20:13;;;;;;;;;;;;;;;;;;5018735;28;19913;-25
2022/07/31 12:22:40;;;;;;;;;;;;;;;;;;5017459;28;20000;-27
2022/07/31 12:25:08;;;;;;;;;;;;;;;;;;5018330;28;19914;-24
2022/07/31 12:27:34;;;;;;;;;;;;;;;;;;5018634;28;20348;-24
2022/07/31 12:30:00;;;;;;;;;;;;;;;;;;5018314;28;19913;-26
2022/07/31 12:32:26;;;;;;;;;;;;;;;;;;5017247;28;19924;-25
2022/07/31 12:34:52;;;;;;;;;;;;;;;;;;5018399;28;20344;-33
2022/07/31 12:37:20;;;;;;;;;;;;;;;;;;5018167;28;20004;-25
2022/07/31 12:39:46;;;;;;;;;;;;;;;;;;5018101;28;20307;-27
2022/07/31 12:42:12;;;;;;;;;;;;;;;;;;5017074;28;19948;-27
2022/07/31 12:44:38;;;;;;;;;;;;;;;;;;5018002;28;19923;-24
2022/07/31 12:47:04;;;;;;;;;;;;;;;;;;5018281;28;19925;-26
2022/07/31 12:49:30;;;;;;;;;;;;;;;;;;5017962;28;19963;-29
2022/07/31 12:51:57;;;;;;;;;;;;;;;;;;5017789;28;19917;-26
2022/07/31 12:54:25;;;;;;;;;;;;;;;;;;5018070;28;20222;-27
2022/07/31 12:56:51;;;;;;;;;;;;;;;;;;5018036;28;19914;-25
2022/07/31 12:59:16;;;;;;;;;;;;;;;;;;5017706;28;20052;-28
2022/07/31 13:01:43;;;;;;;;;;;;;;;;;;5017971;28;19914;-27
2022/07/31 13:04:08;;;;;;;;;;;;;;;;;;5017353;28;19917;-25
2022/07/31 13:06:36;;;;;;;;;;;;;;;;;;5017628;28;19913;-29
2022/07/31 13:09:02;;;;;;;;;;;;;;;;;;5016602;28;19917;-31
2022/07/31 13:11:32;;;;;;;;;;;;;;;;;;5017505;28;19980;-27
2022/07/31 13:13:58;;;;;;;;;;;;;;;;;;5017297;28;19924;-27
2022/07/31 13:16:23;;;;;;;;;;;;;;;;;;5017435;28;20008;-24
2022/07/31 13:18:49;;;;;;;;;;;;;;;;;;5016416;28;19914;-26
2022/07/31 13:21:16;;;;;;;;;;;;;;;;;;5017367;28;19910;-27
2022/07/31 13:23:42;;;;;;;;;;;;;;;;;;5017532;28;20371;-25
2022/07/31 13:26:08;;;;;;;;;;;;;;;;;;5017249;28;19996;-25
2022/07/31 13:28:34;;;;;;;;;;;;;;;;;;5017495;28;19922;-24
2022/07/31 13:31:00;;;;;;;;;;;;;;;;;;5016214;28;19913;-27
2022/07/31 13:33:26;;;;;;;;;;;;;;;;;;5017042;28;19932;-26
2022/07/31 13:35:52;;;;;;;;;;;;;;;;;;5017285;28;19918;-25
2022/07/31 13:38:18;;;;;;;;;;;;;;;;;;5017006;28;19913;-27
2022/07/31 13:43:28;;;;;;;;;;;;;;;;;;5017197;28;19940;-28
2022/07/31 13:45:54;;;;;;;;;;;;;;;;;;5016839;28;19921;-27
2022/07/31 13:48:20;;;;;;;;;;;;;;;;;;5016816;28;19910;-28
2022/07/31 13:50:46;;;;;;;;;;;;;;;;;;5016750;28;19914;-24
2022/07/31 13:53:12;;;;;;;;;;;;;;;;;;5016681;28;19914;-27
2022/07/31 13:55:38;;;;;;;;;;;;;;;;;;5016575;28;19980;-25
2022/07/31 13:58:04;;;;;;;;;;;;;;;;;;5016921;28;19914;-28
2022/07/31 14:00:30;;;;;;;;;;;;;;;;;;5016543;28;19917;-27
2022/07/31 14:02:56;;;;;;;;;;;;;;;;;;5016320;28;19971;-25
2022/07/31 14:05:22;;;;;;;;;;;;;;;;;;5016565;28;19922;-29
2022/07/31 14:07:48;;;;;;;;;;;;;;;;;;5016456;28;19913;-24
2022/07/31 14:10:14;;;;;;;;;;;;;;;;;;5015496;28;19924;-25
2022/07/31 14:12:40;;;;;;;;;;;;;;;;;;5015422;28;19968;-26
2022/07/31 14:15:06;;;;;;;;;;;;;;;;;;5016584;28;20357;-24
2022/07/31 14:17:32;;;;;;;;;;;;;;;;;;5015366;28;19913;-24
2022/07/31 14:19:58;;;;;;;;;;;;;;;;;;5016605;28;20313;-25
2022/07/31 14:22:24;;;;;;;;;;;;;;;;;;5016196;28;20236;-24
2022/07/31 14:24:50;;;;;;;;;;;;;;;;;;5016480;28;19920;-25
2022/07/31 14:27:16;;;;;;;;;;;;;;;;;;5016392;28;19913;-25
2022/07/31 14:29:42;;;;;;;;;;;;;;;;;;5016198;28;19920;-24
2022/07/31 14:32:08;;;;;;;;;;;;;;;;;;5016270;28;19925;-26
2022/07/31 14:34:34;;;;;;;;;;;;;;;;;;5016209;28;20340;-24
2022/07/31 14:37:00;;;;;;;;;;;;;;;;;;5015989;28;20028;-24
2022/07/31 14:39:26;;;;;;;;;;;;;;;;;;5015947;28;19960;-33
2022/07/31 14:41:52;;;;;;;;;;;;;;;;;;5015868;28;19910;-25
2022/07/31 14:44:18;;;;;;;;;;;;;;;;;;5015832;28;19960;-27
2022/07/31 14:46:44;;;;;;;;;;;;;;;;;;5016104;28;19914;-26
2022/07/31 14:49:11;;;;;;;;;;;;;;;;;;5015824;28;20360;-24
2022/07/31 14:51:37;;;;;;;;;;;;;;;;;;5016516;28;19913;-31
2022/07/31 14:54:04;;;;;;;;;;;;;;;;;;5015622;28;19914;-28
2022/07/31 14:56:29;;;;;;;;;;;;;;;;;;5015940;28;20293;-25
2022/07/31 14:58:55;;;;;;;;;;;;;;;;;;5015659;28;19953;-25
2022/07/31 15:01:21;;;;;;;;;;;;;;;;;;5015871;28;19917;-24
2022/07/31 15:03:47;;;;;;;;;;;;;;;;;;5015328;28;19962;-25
2022/07/31 15:06:13;;;;;;;;;;;;;;;;;;5015558;28;19914;-24
2022/07/31 15:08:39;;;;;;;;;;;;;;;;;;5015496;28;19914;-25
2022/07/31 15:11:06;;;;;;;;;;;;;;;;;;5015448;28;19909;-26
2022/07/31 15:13:32;;;;;;;;;;;;;;;;;;5015288;28;19948;-25
2022/07/31 15:15:58;;;;;;;;;;;;;;;;;;5015622;28;19968;-27
2022/07/31 15:18:24;;;;;;;;;;;;;;;;;;5016146;28;19941;-25
2022/07/31 15:20:50;;;;;;;;;;;;;;;;;;5015386;28;19968;-26
2022/07/31 15:23:16;;;;;;;;;;;;;;;;;;5015402;28;19913;-30
2022/07/31 15:25:41;;;;;;;;;;;;;;;;;;5015320;28;19910;-25
2022/07/31 15:28:07;;;;;;;;;;;;;;;;;;5015292;28;20257;-28
2022/07/31 15:30:33;;;;;;;;;;;;;;;;;;5014363;28;19914;-28
2022/07/31 15:33:00;;;;;;;;;;;;;;;;;;5015186;28;19921;-24
2022/07/31 15:35:26;;;;;;;;;;;;;;;;;;5015152;28;19924;-25
2022/07/31 15:37:51;;;;;;;;;;;;;;;;;;5015178;28;20004;-26
2022/07/31 15:40:17;;;;;;;;;;;;;;;;;;5015679;28;19909;-25
2022/07/31 15:42:43;;;;;;;;;;;;;;;;;;5019100;28;19913;-26
2022/07/31 15:45:09;;;;;;;;;;;;;;;;;;5019455;28;19960;-26
2022/07/31 15:47:35;;;;;;;;;;;;;;;;;;5019090;28;20371;-26
2022/07/31 15:50:01;;;;;;;;;;;;;;;;;;5019024;28;19913;-27
2022/07/31 15:52:27;;;;;;;;;;;;;;;;;;5018921;28;20282;-26
2022/07/31 15:54:53;;;;;;;;;;;;;;;;;;5018884;28;19960;-24
2022/07/31 15:57:19;;;;;;;;;;;;;;;;;;5018898;28;19913;-24
2022/07/31 15:59:45;;;;;;;;;;;;;;;;;;5019132;28;19910;-24
2022/07/31 16:02:11;;;;;;;;;;;;;;;;;;5019005;28;19940;-25
2022/07/31 16:04:38;;;;;;;;;;;;;;;;;;5018601;28;19924;-25
2022/07/31 16:07:04;;;;;;;;;;;;;;;;;;5017833;28;20440;-27
2022/07/31 16:09:30;;;;;;;;;;;;;;;;;;5018969;28;19921;-26
2022/07/31 16:11:56;;;;;;;;;;;;;;;;;;5018873;28;20060;-29
2022/07/31 16:14:22;;;;;;;;;;;;;;;;;;5018540;28;20052;-26
2022/07/31 16:16:48;;;;;;;;;;;;;;;;;;5018828;28;19945;-25
2022/07/31 16:19:15;;;;;;;;;;;;;;;;;;5018537;28;20027;-25
2022/07/31 16:21:41;;;;;;;;;;;;;;;;;;5018410;28;19913;-29
2022/07/31 16:24:07;;;;;;;;;;;;;;;;;;5017412;28;19933;-25
2022/07/31 16:26:33;;;;;;;;;;;;;;;;;;5018410;28;19913;-25
2022/07/31 16:28:59;;;;;;;;;;;;;;;;;;5018615;28;19917;-27
2022/07/31 16:31:25;;;;;;;;;;;;;;;;;;5018330;28;20367;-25
2022/07/31 16:33:51;;;;;;;;;;;;;;;;;;5018132;28;19940;-24
2022/07/31 16:36:19;;;;;;;;;;;;;;;;;;5018453;28;19989;-26
2022/07/31 16:38:45;;;;;;;;;;;;;;;;;;5018421;28;20004;-24
2022/07/31 16:41:11;;;;;;;;;;;;;;;;;;5018371;28;19964;-25